Terminal Aerodrome Forecast
Issued by NWS Buffalo, NY

Home | Current Version | Previous Version | Text Only | Print | Product List | Glossary On
Versions: 1 2 3 4 5 6 7 8 9 10 11 12 13 14 15 16 17 18 19 20 21 22 23 24 25 26 27 28
000
FTUS41 KBUF 161257 AAB
TAFBUF
TAF AMD
KBUF 161257Z 1613/1712 VRB04KT P6SM SCT015 BKN250
      TEMPO 1613/1615 BKN015
     FM161500 05006KT P6SM BKN040
     FM161700 03006KT P6SM BKN250
     FM170100 09004KT P6SM FEW200=

USA.gov is the U.S. government's official web portal to all federal, state and local government web resources and services.